Time,TemperatureF,DewpointF,PressureIn,WindDirection,WindDirectionDegrees,WindSpeedMPH,WindSpeedGustMPH,Humidity,HourlyPrecipIn,Conditions,Clouds,dailyrainin,SoftwareType,DateUTC
2013-02-24 00:00:00,13.5,11.1,29.95,NW,309,0.0,0.0,90,0.00,,SKC,0.02,VWS V14.01,2013-02-24 06:00:00,
2013-02-24 00:05:00,14.0,11.6,29.95,NW,309,0.0,0.0,90,0.00,,SKC,0.00,VWS V14.01,2013-02-24 06:05:00,
2013-02-24 00:10:00,14.0,11.4,29.95,NW,309,0.0,0.0,89,0.00,,SKC,0.00,VWS V14.01,2013-02-24 06:10:00,
2013-02-24 00:15:00,13.8,11.2,29.95,NW,309,0.0,0.0,89,0.00,,SKC,0.00,VWS V14.01,2013-02-24 06:15:00,
2013-02-24 00:20:00,13.6,11.0,29.95,NW,309,0.0,0.0,89,0.00,,SKC,0.00,VWS V14.01,2013-02-24 06:20:00,
2013-02-24 00:24:00,13.8,11.2,29.95,NW,309,0.0,0.0,89,0.00,,SKC,0.00,VWS V14.01,2013-02-24 06:24:00,
2013-02-24 00:29:00,13.8,11.2,29.96,NW,309,0.0,0.0,89,0.00,,SKC,0.00,VWS V14.01,2013-02-24 06:29:00,
2013-02-24 00:34:00,13.6,10.7,29.96,NW,308,0.0,0.0,88,0.00,,SKC,0.00,VWS V14.01,2013-02-24 06:34:00,
2013-02-24 00:39:00,12.8,9.9,29.96,NW,308,0.0,0.0,88,0.00,,SKC,0.00,VWS V14.01,2013-02-24 06:39:00,
2013-02-24 00:44:00,12.4,9.5,29.96,NW,306,0.0,0.0,88,0.00,,SKC,0.00,VWS V14.01,2013-02-24 06:44:00,
2013-02-24 00:49:00,12.4,9.5,29.96,NW,306,0.0,0.0,88,0.00,,SKC,0.00,VWS V14.01,2013-02-24 06:49:00,
2013-02-24 00:54:00,11.1,8.0,29.96,NW,306,0.0,0.0,87,0.00,,SKC,0.00,VWS V14.01,2013-02-24 06:54:00,
2013-02-24 00:59:00,9.5,5.9,29.97,NW,306,0.0,0.0,85,0.00,,SKC,0.00,VWS V14.01,2013-02-24 06:59:00,
2013-02-24 01:04:00,7.9,4.1,29.97,NW,306,0.0,0.0,84,0.00,,SKC,0.00,VWS V14.01,2013-02-24 07:04:00,
2013-02-24 01:09:00,6.5,2.7,29.97,NW,306,0.0,0.0,84,0.00,,SKC,0.00,VWS V14.01,2013-02-24 07:09:00,
2013-02-24 01:14:00,7.2,3.9,29.98,NW,306,0.0,0.0,86,0.00,,SKC,0.00,VWS V14.01,2013-02-24 07:14:00,
2013-02-24 01:19:00,7.9,4.6,29.98,NW,306,0.0,0.0,86,0.00,,SKC,0.00,VWS V14.01,2013-02-24 07:19:00,
2013-02-24 01:24:00,7.9,4.3,29.98,NW,306,0.0,0.0,85,0.00,,SKC,0.00,VWS V14.01,2013-02-24 07:24:00,
2013-02-24 01:29:00,8.3,5.0,29.98,NW,306,0.0,0.0,86,0.00,,SKC,0.00,VWS V14.01,2013-02-24 07:29:00,
2013-02-24 01:34:00,7.9,4.1,29.98,NW,306,0.0,0.0,84,0.00,,SKC,0.00,VWS V14.01,2013-02-24 07:34:00,
2013-02-24 01:39:00,7.6,4.0,29.98,NW,306,0.0,0.0,85,0.00,,SKC,0.00,VWS V14.01,2013-02-24 07:39:00,
2013-02-24 01:44:00,7.4,3.8,29.99,NW,306,0.0,0.0,85,0.00,,SKC,0.00,VWS V14.01,2013-02-24 07:44:00,
2013-02-24 01:49:00,6.5,2.7,29.99,NW,306,0.0,0.0,84,0.00,,SKC,0.00,VWS V14.01,2013-02-24 07:49:00,
2013-02-24 01:54:00,5.6,1.6,29.99,NW,306,0.0,0.0,83,0.00,,SKC,0.00,VWS V14.01,2013-02-24 07:54:00,
2013-02-24 01:59:00,5.8,2.0,29.99,NW,306,0.0,0.0,84,0.00,,SKC,0.00,VWS V14.01,2013-02-24 07:59:00,
2013-02-24 02:04:00,5.6,1.8,29.99,NW,306,0.0,0.0,84,0.00,,SKC,0.00,VWS V14.01,2013-02-24 08:04:00,
2013-02-24 02:09:00,6.0,2.5,29.99,NW,311,0.0,0.0,85,0.00,,SKC,0.00,VWS V14.01,2013-02-24 08:09:00,
2013-02-24 02:14:00,8.1,5.0,29.99,NW,311,0.0,0.0,87,0.00,,SKC,0.00,VWS V14.01,2013-02-24 08:14:00,
2013-02-24 02:19:00,11.2,8.6,29.99,NW,311,0.0,0.0,89,0.00,,SKC,0.00,VWS V14.01,2013-02-24 08:19:00,
2013-02-24 02:24:00,10.9,7.8,29.99,NW,309,0.0,0.0,87,0.00,,SKC,0.00,VWS V14.01,2013-02-24 08:24:00,
2013-02-24 02:29:00,11.1,8.2,29.98,NW,309,0.0,0.0,88,0.00,,SKC,0.00,VWS V14.01,2013-02-24 08:29:00,
2013-02-24 02:34:00,11.6,8.7,29.98,NW,309,0.0,0.0,88,0.00,,SKC,0.00,VWS V14.01,2013-02-24 08:34:00,
2013-02-24 02:39:00,11.6,8.7,29.98,NW,311,0.0,0.0,88,0.00,,SKC,0.00,VWS V14.01,2013-02-24 08:39:00,
2013-02-24 02:44:00,11.4,8.5,29.98,NW,311,0.0,0.0,88,0.00,,SKC,0.00,VWS V14.01,2013-02-24 08:44:00,
2013-02-24 02:49:00,11.7,8.8,29.98,NW,312,0.0,0.0,88,0.00,,SKC,0.00,VWS V14.01,2013-02-24 08:49:00,
2013-02-24 02:54:00,11.6,8.7,29.98,NW,313,0.0,0.0,88,0.00,,SKC,0.00,VWS V14.01,2013-02-24 08:54:00,
2013-02-24 02:59:00,11.7,8.8,29.98,NW,323,0.0,0.0,88,0.00,,SKC,0.00,VWS V14.01,2013-02-24 08:59:00,
2013-02-24 03:04:00,11.6,8.7,29.98,NNW,328,0.0,0.0,88,0.00,,SKC,0.00,VWS V14.01,2013-02-24 09:04:00,
2013-02-24 03:09:00,11.6,8.7,29.98,NNW,328,0.0,0.0,88,0.00,,SKC,0.00,VWS V14.01,2013-02-24 09:09:00,
2013-02-24 03:14:00,11.2,8.4,29.98,NNW,328,0.0,0.0,88,0.00,,SKC,0.00,VWS V14.01,2013-02-24 09:14:00,
2013-02-24 03:19:00,11.2,8.4,29.98,NNW,328,0.0,0.0,88,0.00,,SKC,0.00,VWS V14.01,2013-02-24 09:19:00,
2013-02-24 03:24:00,11.2,8.4,29.98,NNW,328,0.0,0.0,88,0.00,,SKC,0.00,VWS V14.01,2013-02-24 09:24:00,
2013-02-24 03:29:00,11.2,8.1,29.99,NW,325,0.0,0.0,87,0.00,,SKC,0.00,VWS V14.01,2013-02-24 09:29:00,
2013-02-24 03:34:00,9.3,6.0,29.99,NW,325,0.0,0.0,86,0.00,,SKC,0.00,VWS V14.01,2013-02-24 09:34:00,
2013-02-24 03:39:00,7.9,4.3,29.99,NW,325,0.0,0.0,85,0.00,,SKC,0.00,VWS V14.01,2013-02-24 09:39:00,
2013-02-24 03:44:00,7.2,3.7,29.99,NW,325,0.0,0.0,85,0.00,,SKC,0.00,VWS V14.01,2013-02-24 09:44:00,
2013-02-24 03:49:00,7.2,3.7,29.99,NW,325,0.0,0.0,85,0.00,,SKC,0.00,VWS V14.01,2013-02-24 09:49:00,
2013-02-24 03:54:00,7.4,4.1,29.99,NW,325,0.0,0.0,86,0.00,,SKC,0.00,VWS V14.01,2013-02-24 09:54:00,
2013-02-24 03:59:00,8.1,4.8,29.99,NW,325,0.0,0.0,86,0.00,,SKC,0.00,VWS V14.01,2013-02-24 09:59:00,
2013-02-24 04:04:00,8.8,5.7,29.99,NNW,329,0.0,0.0,87,0.00,,SKC,0.00,VWS V14.01,2013-02-24 10:04:00,
2013-02-24 04:09:00,9.3,6.2,29.99,NNW,330,0.0,0.0,87,0.00,,SKC,0.00,VWS V14.01,2013-02-24 10:09:00,
2013-02-24 04:14:00,9.5,6.4,29.99,NNW,332,0.0,0.0,87,0.00,,SKC,0.00,VWS V14.01,2013-02-24 10:14:00,
2013-02-24 04:19:00,10.4,7.6,29.99,NNE,28,0.0,0.0,88,0.00,,SKC,0.00,VWS V14.01,2013-02-24 10:19:00,
2013-02-24 04:24:00,11.2,8.4,29.99,NNE,28,0.0,0.0,88,0.00,,SKC,0.00,VWS V14.01,2013-02-24 10:24:00,
2013-02-24 04:29:00,11.7,8.8,29.99,NNE,27,0.0,0.0,88,0.00,,SKC,0.00,VWS V14.01,2013-02-24 10:29:00,
2013-02-24 04:34:00,11.7,8.8,29.99,NNE,27,0.0,0.0,88,0.00,,SKC,0.00,VWS V14.01,2013-02-24 10:34:00,
2013-02-24 04:39:00,11.6,8.7,29.99,NNE,27,0.0,0.0,88,0.00,,SKC,0.00,VWS V14.01,2013-02-24 10:39:00,
2013-02-24 04:44:00,11.4,8.5,30.00,NNE,27,0.0,0.0,88,0.00,,SKC,0.00,VWS V14.01,2013-02-24 10:44:00,
2013-02-24 04:49:00,11.9,9.3,30.00,NNE,27,0.0,0.0,89,0.00,,SKC,0.00,VWS V14.01,2013-02-24 10:49:00,
2013-02-24 04:54:00,12.4,9.8,30.00,NNE,27,0.0,0.0,89,0.00,,SKC,0.00,VWS V14.01,2013-02-24 10:54:00,
2013-02-24 04:59:00,12.8,10.2,30.00,NNE,27,0.0,0.0,89,0.00,,SKC,0.00,VWS V14.01,2013-02-24 10:59:00,
2013-02-24 05:04:00,13.1,10.5,30.00,NNE,27,0.0,0.0,89,0.00,,SKC,0.00,VWS V14.01,2013-02-24 11:04:00,
2013-02-24 05:09:00,13.5,10.9,30.00,NNE,27,0.0,0.0,89,0.00,,SKC,0.00,VWS V14.01,2013-02-24 11:09:00,
2013-02-24 05:14:00,13.8,11.4,30.01,NNE,27,0.0,0.0,90,0.00,,SKC,0.00,VWS V14.01,2013-02-24 11:14:00,
2013-02-24 05:19:00,12.4,9.5,30.01,NNE,27,0.0,0.0,88,0.00,,SKC,0.00,VWS V14.01,2013-02-24 11:19:00,
2013-02-24 05:24:00,8.6,5.0,30.01,NNE,25,0.0,0.0,85,0.00,,SKC,0.00,VWS V14.01,2013-02-24 11:24:00,
2013-02-24 05:29:00,8.6,5.5,30.02,NNE,25,0.0,0.0,87,0.00,,SKC,0.00,VWS V14.01,2013-02-24 11:29:00,
2013-02-24 05:34:00,10.4,7.6,30.02,NNE,25,0.0,0.0,88,0.00,,SKC,0.00,VWS V14.01,2013-02-24 11:34:00,
2013-02-24 05:39:00,9.5,6.2,30.02,NNE,25,0.0,0.0,86,0.00,,SKC,0.00,VWS V14.01,2013-02-24 11:39:00,
2013-02-24 05:44:00,8.8,5.5,30.02,NNE,25,0.0,0.0,86,0.00,,SKC,0.00,VWS V14.01,2013-02-24 11:44:00,
2013-02-24 05:49:00,6.0,2.2,30.03,NNE,25,0.0,0.0,84,0.00,,SKC,0.00,VWS V14.01,2013-02-24 11:49:00,
2013-02-24 05:54:00,5.0,1.2,30.03,NNE,24,0.0,0.0,84,0.00,,SKC,0.00,VWS V14.01,2013-02-24 11:54:00,
2013-02-24 05:59:00,6.7,3.2,30.03,NNE,24,0.0,0.0,85,0.00,,SKC,0.00,VWS V14.01,2013-02-24 11:59:00,
2013-02-24 06:04:00,8.1,4.8,30.03,NNE,24,0.0,0.0,86,0.00,,SKC,0.00,VWS V14.01,2013-02-24 12:04:00,
2013-02-24 06:09:00,9.3,6.2,30.03,NNE,24,0.0,0.0,87,0.00,,SKC,0.00,VWS V14.01,2013-02-24 12:09:00,
2013-02-24 06:14:00,9.9,6.8,30.03,NNE,24,0.0,0.0,87,0.00,,SKC,0.00,VWS V14.01,2013-02-24 12:14:00,
2013-02-24 06:19:00,9.3,6.2,30.03,NNE,24,0.0,0.0,87,0.00,,SKC,0.00,VWS V14.01,2013-02-24 12:19:00,
2013-02-24 06:24:00,9.2,5.9,30.03,NNE,24,0.0,0.0,86,0.00,,SKC,0.00,VWS V14.01,2013-02-24 12:24:00,
2013-02-24 06:29:00,7.6,4.0,30.03,NNE,24,0.0,0.0,85,0.00,,SKC,0.00,VWS V14.01,2013-02-24 12:29:00,
2013-02-24 06:34:00,7.0,3.5,30.05,NNE,24,0.0,0.0,85,0.00,,SKC,0.00,VWS V14.01,2013-02-24 12:34:00,
2013-02-24 06:39:00,6.5,2.7,30.05,NNE,24,0.0,0.0,84,0.00,,SKC,0.00,VWS V14.01,2013-02-24 12:39:00,
2013-02-24 06:44:00,5.6,1.8,30.05,NNE,24,0.0,0.0,84,0.00,,SKC,0.00,VWS V14.01,2013-02-24 12:44:00,
2013-02-24 06:49:00,4.8,1.0,30.05,NNE,24,0.0,0.0,84,0.00,,SKC,0.00,VWS V14.01,2013-02-24 12:49:00,
2013-02-24 06:54:00,3.5,-0.5,30.05,NNE,24,0.0,0.0,83,0.00,,SKC,0.00,VWS V14.01,2013-02-24 12:54:00,
2013-02-24 06:59:00,3.2,-0.8,30.05,NNE,24,0.0,0.0,83,0.00,,SKC,0.00,VWS V14.01,2013-02-24 12:59:00,
2013-02-24 07:04:00,2.8,-1.2,30.06,NNE,24,0.0,0.0,83,0.00,,SKC,0.00,VWS V14.01,2013-02-24 13:04:00,
2013-02-24 07:09:00,2.4,-1.8,30.06,NNE,24,0.0,0.0,82,0.00,,SKC,0.00,VWS V14.01,2013-02-24 13:09:00,
2013-02-24 07:14:00,2.8,-1.2,30.06,NNE,24,0.0,0.0,83,0.00,,SKC,0.00,VWS V14.01,2013-02-24 13:14:00,
2013-02-24 07:18:00,4.3,0.6,30.06,NNE,24,0.0,0.0,84,0.00,,SKC,0.00,VWS V14.01,2013-02-24 13:18:00,
2013-02-24 07:23:00,4.5,0.7,30.06,NNE,24,0.0,0.0,84,0.00,,SKC,0.00,VWS V14.01,2013-02-24 13:23:00,
2013-02-24 07:28:00,4.7,0.9,30.06,NNE,24,0.0,0.0,84,0.00,,SKC,0.00,VWS V14.01,2013-02-24 13:28:00,
2013-02-24 07:33:00,5.2,1.4,30.05,NNE,24,0.0,0.0,84,0.00,,SKC,0.00,VWS V14.01,2013-02-24 13:33:00,
2013-02-24 07:38:00,5.6,1.8,30.05,NNE,24,0.0,0.0,84,0.00,,SKC,0.00,VWS V14.01,2013-02-24 13:38:00,
2013-02-24 07:43:00,6.3,2.8,30.05,NNE,24,0.0,0.0,85,0.00,,SKC,0.00,VWS V14.01,2013-02-24 13:43:00,
2013-02-24 07:48:00,7.4,4.1,30.06,NNE,24,0.0,0.0,86,0.00,,SKC,0.00,VWS V14.01,2013-02-24 13:48:00,
2013-02-24 07:53:00,8.1,4.8,30.06,NNE,24,0.0,0.0,86,0.00,,SKC,0.00,VWS V14.01,2013-02-24 13:53:00,
2013-02-24 07:58:00,7.9,4.3,30.06,NNE,24,0.0,0.0,85,0.00,,SKC,0.00,VWS V14.01,2013-02-24 13:58:00,
2013-02-24 08:03:00,7.2,3.7,30.06,NNE,24,0.0,0.0,85,0.00,,SKC,0.00,VWS V14.01,2013-02-24 14:03:00,
2013-02-24 08:08:00,7.2,3.7,30.06,NNE,24,0.0,0.0,85,0.00,,SKC,0.00,VWS V14.01,2013-02-24 14:08:00,
2013-02-24 08:13:00,8.8,5.7,30.06,NNE,30,0.0,0.0,87,0.00,,SKC,0.00,VWS V14.01,2013-02-24 14:13:00,
2013-02-24 08:18:00,10.4,7.3,30.06,NE,34,0.0,0.0,87,0.00,,SKC,0.00,VWS V14.01,2013-02-24 14:18:00,
2013-02-24 08:23:00,11.4,8.5,30.06,NE,38,0.0,0.0,88,0.00,,SKC,0.00,VWS V14.01,2013-02-24 14:23:00,
2013-02-24 08:28:00,12.1,9.2,30.06,NE,42,0.0,0.0,88,0.00,,SKC,0.00,VWS V14.01,2013-02-24 14:28:00,
2013-02-24 08:33:00,11.9,9.0,30.06,NE,42,0.0,0.0,88,0.00,,SKC,0.00,VWS V14.01,2013-02-24 14:33:00,
2013-02-24 08:38:00,11.1,8.0,30.06,NE,48,0.0,0.0,87,0.00,,SKC,0.00,VWS V14.01,2013-02-24 14:38:00,
2013-02-24 08:43:00,10.5,7.4,30.06,NE,48,0.0,0.0,87,0.00,,SKC,0.00,VWS V14.01,2013-02-24 14:43:00,
2013-02-24 08:48:00,10.9,7.8,30.06,NE,55,0.0,0.0,87,0.00,,SKC,0.00,VWS V14.01,2013-02-24 14:48:00,
2013-02-24 08:53:00,11.7,8.8,30.06,NE,55,0.0,0.0,88,0.00,,SKC,0.00,VWS V14.01,2013-02-24 14:53:00,
2013-02-24 08:58:00,13.1,10.5,30.06,NE,52,0.0,0.0,89,0.00,,SKC,0.00,VWS V14.01,2013-02-24 14:58:00,
2013-02-24 09:03:00,14.0,11.4,30.06,NE,49,0.0,0.0,89,0.00,,SKC,0.00,VWS V14.01,2013-02-24 15:03:00,
2013-02-24 09:08:00,14.6,12.2,30.06,NE,51,0.0,0.0,90,0.00,,SKC,0.00,VWS V14.01,2013-02-24 15:08:00,
2013-02-24 09:13:00,15.4,13.0,30.06,NE,49,0.0,0.0,90,0.00,,SKC,0.00,VWS V14.01,2013-02-24 15:13:00,
2013-02-24 09:18:00,16.1,13.7,30.06,NE,48,0.0,0.0,90,0.00,,SKC,0.00,VWS V14.01,2013-02-24 15:18:00,
2013-02-24 09:23:00,16.7,14.5,30.06,NE,48,0.0,0.0,91,0.00,,SKC,0.00,VWS V14.01,2013-02-24 15:23:00,
2013-02-24 09:28:00,17.2,15.0,30.06,NE,48,0.0,0.0,91,0.00,,SKC,0.00,VWS V14.01,2013-02-24 15:28:00,
2013-02-24 09:33:00,17.7,15.5,30.07,NE,48,0.0,0.0,91,0.00,,SKC,0.00,VWS V14.01,2013-02-24 15:33:00,
2013-02-24 09:38:00,16.7,14.3,30.07,NE,48,0.0,0.0,90,0.00,,SKC,0.00,VWS V14.01,2013-02-24 15:38:00,
2013-02-24 09:43:00,14.8,12.1,30.07,NE,48,0.0,0.0,89,0.00,,SKC,0.00,VWS V14.01,2013-02-24 15:43:00,
2013-02-24 09:48:00,14.8,12.4,30.08,NE,48,0.0,0.0,90,0.00,,SKC,0.00,VWS V14.01,2013-02-24 15:48:00,
2013-02-24 09:53:00,14.9,12.5,30.08,NE,48,0.0,0.0,90,0.00,,SKC,0.00,VWS V14.01,2013-02-24 15:53:00,
2013-02-24 09:58:00,15.6,13.2,30.08,NE,48,0.0,0.0,90,0.00,,SKC,0.00,VWS V14.01,2013-02-24 15:58:00,
2013-02-24 10:03:00,16.2,13.8,30.08,NE,48,0.0,0.0,90,0.00,,SKC,0.00,VWS V14.01,2013-02-24 16:03:00,
2013-02-24 10:08:00,16.1,13.7,30.08,NE,48,0.0,0.0,90,0.00,,SKC,0.00,VWS V14.01,2013-02-24 16:08:00,
2013-02-24 10:13:00,15.6,12.9,30.08,NE,48,0.0,0.0,89,0.00,,SKC,0.00,VWS V14.01,2013-02-24 16:13:00,
2013-02-24 10:18:00,15.2,12.6,30.10,NE,48,0.0,0.0,89,0.00,,SKC,0.00,VWS V14.01,2013-02-24 16:18:00,
2013-02-24 10:23:00,15.1,12.4,30.10,NE,48,0.0,0.0,89,0.00,,SKC,0.00,VWS V14.01,2013-02-24 16:23:00,
2013-02-24 10:28:00,15.1,12.4,30.10,NE,48,0.0,0.0,89,0.00,,SKC,0.00,VWS V14.01,2013-02-24 16:28:00,
2013-02-24 10:33:00,15.1,12.4,30.10,NE,48,0.0,0.0,89,0.00,,SKC,0.00,VWS V14.01,2013-02-24 16:33:00,
2013-02-24 10:38:00,15.7,13.3,30.10,NE,48,0.0,0.0,90,0.00,,SKC,0.00,VWS V14.01,2013-02-24 16:38:00,
2013-02-24 10:43:00,17.0,14.8,30.10,NE,48,0.0,0.0,91,0.00,,SKC,0.00,VWS V14.01,2013-02-24 16:43:00,
2013-02-24 10:48:00,18.3,16.1,30.10,NE,48,0.0,0.0,91,0.00,,SKC,0.00,VWS V14.01,2013-02-24 16:48:00,
2013-02-24 10:53:00,19.1,17.2,30.10,NE,48,0.0,0.0,92,0.00,,SKC,0.00,VWS V14.01,2013-02-24 16:53:00,
2013-02-24 10:58:00,20.2,18.2,30.10,NE,48,0.0,0.0,92,0.00,,SKC,0.00,VWS V14.01,2013-02-24 16:58:00,
2013-02-24 11:03:00,20.2,18.2,30.09,NE,48,0.0,0.0,92,0.00,,SKC,0.00,VWS V14.01,2013-02-24 17:03:00,
2013-02-24 11:08:00,20.2,18.2,30.09,NE,48,0.0,0.0,92,0.00,,SKC,0.00,VWS V14.01,2013-02-24 17:08:00,
2013-02-24 11:13:00,20.6,18.6,30.09,NE,48,0.0,0.0,92,0.00,,SKC,0.00,VWS V14.01,2013-02-24 17:13:00,
2013-02-24 11:18:00,21.3,19.6,30.09,NE,48,0.0,0.0,93,0.01,,SKC,0.01,VWS V14.01,2013-02-24 17:18:00,
2013-02-24 11:23:00,21.6,19.6,30.09,NE,48,0.0,0.0,92,0.01,,SKC,0.01,VWS V14.01,2013-02-24 17:23:00,
2013-02-24 11:28:00,21.9,20.2,30.09,NE,48,0.0,0.0,93,0.01,,SKC,0.01,VWS V14.01,2013-02-24 17:28:00,
2013-02-24 11:33:00,22.4,20.4,30.09,NE,48,0.0,0.0,92,0.01,,SKC,0.01,VWS V14.01,2013-02-24 17:33:00,
2013-02-24 11:38:00,22.5,20.5,30.09,NE,55,0.0,0.0,92,0.01,,SKC,0.01,VWS V14.01,2013-02-24 17:38:00,
2013-02-24 11:43:00,23.0,21.3,30.09,NE,55,0.0,0.0,93,0.01,,SKC,0.01,VWS V14.01,2013-02-24 17:43:00,
2013-02-24 11:48:00,23.6,21.9,30.09,NE,55,0.0,0.0,93,0.01,,SKC,0.01,VWS V14.01,2013-02-24 17:48:00,
2013-02-24 11:53:00,23.5,21.5,30.09,NE,55,0.0,0.0,92,0.01,,SKC,0.01,VWS V14.01,2013-02-24 17:53:00,
2013-02-24 11:58:00,23.6,21.4,30.09,NE,55,0.0,0.0,91,0.01,,SKC,0.01,VWS V14.01,2013-02-24 17:58:00,
2013-02-24 12:03:00,24.2,22.0,30.09,NE,55,0.0,0.0,91,0.01,,SKC,0.01,VWS V14.01,2013-02-24 18:03:00,
2013-02-24 12:08:00,24.7,22.2,30.09,SSW,212,2.0,3.0,90,0.01,,SKC,0.01,VWS V14.01,2013-02-24 18:08:00,
2013-02-24 12:13:00,24.7,21.7,30.09,SW,215,0.0,3.0,88,0.01,,SKC,0.01,VWS V14.01,2013-02-24 18:13:00,
2013-02-24 12:18:00,25.0,21.7,30.09,SW,236,5.0,6.0,87,0.01,,SKC,0.01,VWS V14.01,2013-02-24 18:18:00,
2013-02-24 12:23:00,25.4,21.8,30.09,SSW,209,5.0,6.0,86,0.00,,SKC,0.01,VWS V14.01,2013-02-24 18:23:00,
2013-02-24 12:28:00,25.8,21.9,30.09,SSW,193,5.0,7.0,85,0.00,,SKC,0.01,VWS V14.01,2013-02-24 18:28:00,
2013-02-24 12:33:00,25.6,21.2,30.10,SSW,192,5.0,7.0,83,0.00,,SKC,0.01,VWS V14.01,2013-02-24 18:33:00,
2013-02-24 12:38:00,25.4,21.0,30.10,SSW,198,4.0,7.0,83,0.00,,SKC,0.01,VWS V14.01,2013-02-24 18:38:00,
2013-02-24 12:43:00,25.4,20.7,30.10,South,189,2.0,6.0,82,0.00,,SKC,0.01,VWS V14.01,2013-02-24 18:43:00,
2013-02-24 12:48:00,25.7,20.1,30.09,SSW,192,3.0,6.0,79,0.00,,SKC,0.01,VWS V14.01,2013-02-24 18:48:00,
2013-02-24 12:53:00,26.0,20.1,30.09,SSW,193,2.0,4.0,78,0.00,,SKC,0.01,VWS V14.01,2013-02-24 18:53:00,
2013-02-24 12:58:00,26.1,19.6,30.09,South,185,2.0,4.0,76,0.00,,SKC,0.01,VWS V14.01,2013-02-24 18:58:00,
2013-02-24 13:03:00,26.1,19.3,30.09,South,186,2.0,3.0,75,0.00,,SKC,0.01,VWS V14.01,2013-02-24 19:03:00,
2013-02-24 13:08:00,26.0,19.2,30.09,South,186,1.0,3.0,75,0.00,,SKC,0.01,VWS V14.01,2013-02-24 19:08:00,
2013-02-24 13:13:00,25.8,19.0,30.09,SSW,212,1.0,3.0,75,0.00,,SKC,0.01,VWS V14.01,2013-02-24 19:13:00,
2013-02-24 13:18:00,25.8,18.4,30.10,WSW,241,2.0,3.0,73,0.00,,SKC,0.01,VWS V14.01,2013-02-24 19:18:00,
2013-02-24 13:23:00,26.0,18.5,30.10,WSW,248,2.0,5.0,73,0.00,,SKC,0.01,VWS V14.01,2013-02-24 19:23:00,
2013-02-24 13:28:00,26.3,18.5,30.10,WSW,247,2.0,5.0,72,0.00,,SKC,0.01,VWS V14.01,2013-02-24 19:28:00,
2013-02-24 13:33:00,26.6,18.1,30.09,West,263,2.0,4.0,70,0.00,,SKC,0.01,VWS V14.01,2013-02-24 19:33:00,
2013-02-24 13:38:00,26.0,17.6,30.09,West,272,2.0,5.0,70,0.00,,SKC,0.01,VWS V14.01,2013-02-24 19:38:00,
2013-02-24 13:43:00,25.7,17.9,30.09,West,272,2.0,3.0,72,0.00,,SKC,0.01,VWS V14.01,2013-02-24 19:43:00,
2013-02-24 13:48:00,26.0,17.6,30.09,West,271,1.0,3.0,70,0.00,,SKC,0.01,VWS V14.01,2013-02-24 19:48:00,
2013-02-24 13:53:00,26.3,17.5,30.09,West,271,1.0,2.0,69,0.00,,SKC,0.01,VWS V14.01,2013-02-24 19:53:00,
2013-02-24 13:58:00,26.4,17.6,30.09,West,275,1.0,2.0,69,0.00,,SKC,0.01,VWS V14.01,2013-02-24 19:58:00,
2013-02-24 14:03:00,26.1,17.3,30.09,West,271,1.0,2.0,69,0.00,,SKC,0.01,VWS V14.01,2013-02-24 20:03:00,
2013-02-24 14:08:00,26.0,17.6,30.09,West,274,1.0,2.0,70,0.00,,SKC,0.01,VWS V14.01,2013-02-24 20:08:00,
2013-02-24 14:13:00,26.3,17.9,30.09,West,275,1.0,2.0,70,0.00,,SKC,0.01,VWS V14.01,2013-02-24 20:13:00,
2013-02-24 14:18:00,26.9,18.1,30.08,West,274,0.0,2.0,69,0.00,,SKC,0.01,VWS V14.01,2013-02-24 20:18:00,
2013-02-24 14:23:00,27.8,18.3,30.08,West,272,1.0,2.0,67,0.00,,SKC,0.01,VWS V14.01,2013-02-24 20:23:00,
2013-02-24 14:28:00,28.5,18.2,30.08,West,271,1.0,2.0,65,0.00,,SKC,0.01,VWS V14.01,2013-02-24 20:28:00,
2013-02-24 14:33:00,29.0,18.7,30.07,West,271,1.0,2.0,65,0.00,,SKC,0.01,VWS V14.01,2013-02-24 20:33:00,
2013-02-24 14:38:00,29.4,19.1,30.07,West,263,0.0,2.0,65,0.00,,SKC,0.01,VWS V14.01,2013-02-24 20:38:00,
2013-02-24 14:43:00,29.4,18.4,30.07,West,267,1.0,2.0,63,0.00,,SKC,0.01,VWS V14.01,2013-02-24 20:43:00,
2013-02-24 14:48:00,28.5,17.9,30.06,West,268,2.0,2.0,64,0.00,,SKC,0.01,VWS V14.01,2013-02-24 20:48:00,
2013-02-24 14:53:00,28.1,18.6,30.06,West,270,1.0,2.0,67,0.00,,SKC,0.01,VWS V14.01,2013-02-24 20:53:00,
2013-02-24 14:58:00,27.8,17.9,30.06,West,268,3.0,3.0,66,0.00,,SKC,0.01,VWS V14.01,2013-02-24 20:58:00,
2013-02-24 15:03:00,27.5,17.6,30.06,West,278,2.0,5.0,66,0.00,,SKC,0.01,VWS V14.01,2013-02-24 21:03:00,
2013-02-24 15:08:00,27.6,18.1,30.06,West,278,0.0,5.0,67,0.00,,SKC,0.01,VWS V14.01,2013-02-24 21:08:00,
2013-02-24 15:13:00,27.9,17.7,30.06,WNW,282,0.0,2.0,65,0.00,,SKC,0.01,VWS V14.01,2013-02-24 21:13:00,
2013-02-24 15:18:00,28.5,18.2,30.07,West,278,0.0,2.0,65,0.00,,SKC,0.01,VWS V14.01,2013-02-24 21:18:00,
2013-02-24 15:23:00,28.4,18.1,30.07,West,277,0.0,0.0,65,0.00,,SKC,0.01,VWS V14.01,2013-02-24 21:23:00,
2013-02-24 15:28:00,28.2,18.3,30.07,SW,224,0.0,4.0,66,0.00,,SKC,0.01,VWS V14.01,2013-02-24 21:28:00,
2013-02-24 15:33:00,27.8,18.3,30.07,WSW,237,2.0,2.0,67,0.00,,SKC,0.01,VWS V14.01,2013-02-24 21:33:00,
2013-02-24 15:38:00,27.5,18.0,30.07,WSW,244,2.0,3.0,67,0.00,,SKC,0.01,VWS V14.01,2013-02-24 21:38:00,
2013-02-24 15:43:00,27.5,18.0,30.07,West,277,0.0,2.0,67,0.00,,SKC,0.01,VWS V14.01,2013-02-24 21:43:00,
2013-02-24 15:48:00,27.8,18.6,30.07,West,277,1.0,2.0,68,0.00,,SKC,0.01,VWS V14.01,2013-02-24 21:48:00,
2013-02-24 15:52:00,27.9,18.0,30.07,West,271,0.0,2.0,66,0.00,,SKC,0.01,VWS V14.01,2013-02-24 21:52:00,
2013-02-24 15:57:00,28.2,19.0,30.07,West,271,1.0,2.0,68,0.01,,SKC,0.02,VWS V14.01,2013-02-24 21:57:00,
2013-02-24 16:02:00,28.2,18.3,30.07,West,271,0.0,2.0,66,0.01,,SKC,0.02,VWS V14.01,2013-02-24 22:02:00,
2013-02-24 16:07:00,28.2,18.3,30.07,West,274,0.0,2.0,66,0.01,,SKC,0.02,VWS V14.01,2013-02-24 22:07:00,
2013-02-24 16:12:00,28.1,17.9,30.07,West,274,0.0,0.0,65,0.01,,SKC,0.02,VWS V14.01,2013-02-24 22:12:00,
2013-02-24 16:17:00,28.1,17.5,30.06,West,274,0.0,0.0,64,0.01,,SKC,0.02,VWS V14.01,2013-02-24 22:17:00,
2013-02-24 16:22:00,27.9,17.7,30.06,West,274,0.0,0.0,65,0.01,,SKC,0.02,VWS V14.01,2013-02-24 22:22:00,
2013-02-24 16:27:00,27.9,17.3,30.06,West,274,0.0,0.0,64,0.01,,SKC,0.02,VWS V14.01,2013-02-24 22:27:00,
2013-02-24 16:32:00,27.6,17.0,30.06,West,274,0.0,0.0,64,0.01,,SKC,0.02,VWS V14.01,2013-02-24 22:32:00,
2013-02-24 16:37:00,27.0,16.8,30.06,West,274,0.0,0.0,65,0.01,,SKC,0.02,VWS V14.01,2013-02-24 22:37:00,
2013-02-24 16:42:00,26.7,16.9,30.06,West,274,0.0,0.0,66,0.01,,SKC,0.02,VWS V14.01,2013-02-24 22:42:00,
2013-02-24 16:47:00,26.4,16.9,30.05,West,274,0.0,0.0,67,0.01,,SKC,0.02,VWS V14.01,2013-02-24 22:47:00,
2013-02-24 16:52:00,26.3,16.9,30.05,West,271,0.0,0.0,67,0.01,,SKC,0.02,VWS V14.01,2013-02-24 22:52:00,
2013-02-24 16:57:00,25.8,16.4,30.05,West,271,0.0,0.0,67,0.01,,SKC,0.02,VWS V14.01,2013-02-24 22:57:00,
2013-02-24 17:02:00,25.7,16.6,30.06,West,271,0.0,0.0,68,0.00,,SKC,0.02,VWS V14.01,2013-02-24 23:02:00,
2013-02-24 17:07:00,25.6,16.5,30.06,West,271,0.0,0.0,68,0.00,,SKC,0.02,VWS V14.01,2013-02-24 23:07:00,
2013-02-24 17:12:00,25.7,16.6,30.06,West,270,0.0,0.0,68,0.00,,SKC,0.02,VWS V14.01,2013-02-24 23:12:00,
2013-02-24 17:17:00,25.7,16.6,30.07,West,270,0.0,0.0,68,0.00,,SKC,0.02,VWS V14.01,2013-02-24 23:17:00,
2013-02-24 17:22:00,25.6,16.5,30.07,West,270,0.0,0.0,68,0.00,,SKC,0.02,VWS V14.01,2013-02-24 23:22:00,
2013-02-24 17:27:00,25.6,16.5,30.07,West,270,0.0,0.0,68,0.00,,SKC,0.02,VWS V14.01,2013-02-24 23:27:00,
2013-02-24 17:32:00,25.4,16.7,30.08,West,270,0.0,0.0,69,0.00,,SKC,0.02,VWS V14.01,2013-02-24 23:32:00,
2013-02-24 17:37:00,25.3,16.6,30.08,West,270,0.0,0.0,69,0.00,,SKC,0.02,VWS V14.01,2013-02-24 23:37:00,
2013-02-24 17:42:00,25.3,16.6,30.08,West,270,0.0,0.0,69,0.00,,SKC,0.02,VWS V14.01,2013-02-24 23:42:00,
2013-02-24 17:47:00,25.1,16.4,30.08,West,270,0.0,0.0,69,0.00,,SKC,0.02,VWS V14.01,2013-02-24 23:47:00,
2013-02-24 17:52:00,25.0,16.6,30.08,West,270,0.0,0.0,70,0.00,,SKC,0.02,VWS V14.01,2013-02-24 23:52:00,
2013-02-24 17:57:00,24.8,16.4,30.08,West,270,0.0,0.0,70,0.00,,SKC,0.02,VWS V14.01,2013-02-24 23:57:00,
2013-02-24 18:02:00,24.7,16.3,30.08,West,270,0.0,0.0,70,0.00,,SKC,0.02,VWS V14.01,2013-02-25 00:02:00,
2013-02-24 18:07:00,24.5,16.5,30.08,West,270,0.0,0.0,71,0.00,,SKC,0.02,VWS V14.01,2013-02-25 00:07:00,
2013-02-24 18:12:00,24.4,16.4,30.08,West,270,0.0,0.0,71,0.00,,SKC,0.02,VWS V14.01,2013-02-25 00:12:00,
2013-02-24 18:17:00,24.2,16.5,30.09,West,270,0.0,0.0,72,0.00,,SKC,0.02,VWS V14.01,2013-02-25 00:17:00,
2013-02-24 18:22:00,24.2,16.5,30.09,West,270,0.0,0.0,72,0.00,,SKC,0.02,VWS V14.01,2013-02-25 00:22:00,
2013-02-24 18:27:00,24.1,16.4,30.09,West,270,0.0,0.0,72,0.00,,SKC,0.02,VWS V14.01,2013-02-25 00:27:00,
2013-02-24 18:32:00,24.1,16.4,30.09,West,270,0.0,0.0,72,0.00,,SKC,0.02,VWS V14.01,2013-02-25 00:32:00,
2013-02-24 18:37:00,23.9,16.2,30.09,West,270,0.0,0.0,72,0.00,,SKC,0.02,VWS V14.01,2013-02-25 00:37:00,
2013-02-24 18:42:00,24.1,16.4,30.09,West,270,0.0,0.0,72,0.00,,SKC,0.02,VWS V14.01,2013-02-25 00:42:00,
2013-02-24 18:47:00,23.9,16.2,30.09,West,270,0.0,0.0,72,0.00,,SKC,0.02,VWS V14.01,2013-02-25 00:47:00,
2013-02-24 18:52:00,23.8,16.1,30.09,West,270,0.0,0.0,72,0.00,,SKC,0.02,VWS V14.01,2013-02-25 00:52:00,
2013-02-24 18:57:00,23.5,15.8,30.09,West,270,0.0,0.0,72,0.00,,SKC,0.02,VWS V14.01,2013-02-25 00:57:00,
2013-02-24 19:02:00,23.3,15.9,30.10,West,270,0.0,0.0,73,0.00,,SKC,0.02,VWS V14.01,2013-02-25 01:02:00,
2013-02-24 19:07:00,23.2,16.2,30.10,West,270,0.0,0.0,74,0.00,,SKC,0.02,VWS V14.01,2013-02-25 01:07:00,
2013-02-24 19:12:00,23.2,15.8,30.10,West,270,0.0,0.0,73,0.00,,SKC,0.02,VWS V14.01,2013-02-25 01:12:00,
2013-02-24 19:17:00,22.9,15.9,30.09,West,270,0.0,0.0,74,0.00,,SKC,0.02,VWS V14.01,2013-02-25 01:17:00,
2013-02-24 19:22:00,22.7,16.0,30.09,West,270,0.0,0.0,75,0.00,,SKC,0.02,VWS V14.01,2013-02-25 01:22:00,
2013-02-24 19:27:00,22.5,15.8,30.09,West,270,0.0,0.0,75,0.00,,SKC,0.02,VWS V14.01,2013-02-25 01:27:00,
2013-02-24 19:32:00,22.4,15.7,30.10,West,270,0.0,0.0,75,0.00,,SKC,0.02,VWS V14.01,2013-02-25 01:32:00,
2013-02-24 19:37:00,22.4,15.7,30.10,West,270,0.0,0.0,75,0.00,,SKC,0.02,VWS V14.01,2013-02-25 01:37:00,
2013-02-24 19:42:00,22.4,15.7,30.10,West,270,0.0,0.0,75,0.00,,SKC,0.02,VWS V14.01,2013-02-25 01:42:00,
2013-02-24 19:47:00,22.4,15.7,30.10,West,270,0.0,0.0,75,0.00,,SKC,0.02,VWS V14.01,2013-02-25 01:47:00,
2013-02-24 19:52:00,21.9,15.2,30.10,West,270,0.0,0.0,75,0.00,,SKC,0.02,VWS V14.01,2013-02-25 01:52:00,
2013-02-24 19:57:00,21.8,15.4,30.10,West,270,0.0,0.0,76,0.00,,SKC,0.02,VWS V14.01,2013-02-25 01:57:00,
2013-02-24 20:02:00,21.4,15.0,30.10,West,270,0.0,0.0,76,0.00,,SKC,0.02,VWS V14.01,2013-02-25 02:02:00,
2013-02-24 20:07:00,21.0,14.9,30.10,West,270,0.0,0.0,77,0.00,,SKC,0.02,VWS V14.01,2013-02-25 02:07:00,
2013-02-24 20:12:00,20.8,15.0,30.10,West,270,0.0,0.0,78,0.00,,SKC,0.02,VWS V14.01,2013-02-25 02:12:00,
2013-02-24 20:17:00,20.8,15.3,30.10,West,270,0.0,0.0,79,0.00,,SKC,0.02,VWS V14.01,2013-02-25 02:17:00,
2013-02-24 20:22:00,21.0,15.5,30.10,West,270,0.0,0.0,79,0.00,,SKC,0.02,VWS V14.01,2013-02-25 02:22:00,
2013-02-24 20:27:00,20.8,15.0,30.10,West,270,0.0,0.0,78,0.00,,SKC,0.02,VWS V14.01,2013-02-25 02:27:00,
2013-02-24 20:32:00,20.6,15.1,30.10,West,270,0.0,0.0,79,0.00,,SKC,0.02,VWS V14.01,2013-02-25 02:32:00,
2013-02-24 20:37:00,21.0,15.5,30.10,West,270,0.0,0.0,79,0.00,,SKC,0.02,VWS V14.01,2013-02-25 02:37:00,
2013-02-24 20:42:00,21.1,15.3,30.10,West,270,0.0,0.0,78,0.00,,SKC,0.02,VWS V14.01,2013-02-25 02:42:00,
2013-02-24 20:47:00,21.1,15.0,30.09,West,270,0.0,0.0,77,0.00,,SKC,0.02,VWS V14.01,2013-02-25 02:47:00,
2013-02-24 20:52:00,21.1,15.0,30.09,West,270,0.0,0.0,77,0.00,,SKC,0.02,VWS V14.01,2013-02-25 02:52:00,
2013-02-24 20:57:00,21.1,15.0,30.09,West,270,0.0,0.0,77,0.00,,SKC,0.02,VWS V14.01,2013-02-25 02:57:00,
2013-02-24 21:02:00,21.0,14.9,30.09,West,270,0.0,0.0,77,0.00,,SKC,0.02,VWS V14.01,2013-02-25 03:02:00,
2013-02-24 21:07:00,21.0,14.9,30.09,West,274,0.0,0.0,77,0.00,,SKC,0.02,VWS V14.01,2013-02-25 03:07:00,
2013-02-24 21:12:00,21.1,15.0,30.09,West,274,0.0,0.0,77,0.00,,SKC,0.02,VWS V14.01,2013-02-25 03:12:00,
2013-02-24 21:17:00,21.1,14.7,30.09,West,274,0.0,0.0,76,0.00,,SKC,0.02,VWS V14.01,2013-02-25 03:17:00,
2013-02-24 21:22:00,21.1,14.7,30.09,West,274,0.0,0.0,76,0.00,,SKC,0.02,VWS V14.01,2013-02-25 03:22:00,
2013-02-24 21:27:00,21.0,14.6,30.09,West,274,0.0,0.0,76,0.00,,SKC,0.02,VWS V14.01,2013-02-25 03:27:00,
2013-02-24 21:32:00,20.8,14.4,30.09,West,274,0.0,0.0,76,0.00,,SKC,0.02,VWS V14.01,2013-02-25 03:32:00,
2013-02-24 21:37:00,20.5,13.9,30.09,West,274,0.0,0.0,75,0.00,,SKC,0.02,VWS V14.01,2013-02-25 03:37:00,
2013-02-24 21:42:00,20.0,13.7,30.09,West,274,0.0,0.0,76,0.00,,SKC,0.02,VWS V14.01,2013-02-25 03:42:00,
2013-02-24 21:47:00,19.7,13.4,30.10,West,274,0.0,0.0,76,0.00,,SKC,0.02,VWS V14.01,2013-02-25 03:47:00,
2013-02-24 21:52:00,19.2,12.9,30.10,West,274,0.0,0.0,76,0.00,,SKC,0.02,VWS V14.01,2013-02-25 03:52:00,
2013-02-24 21:57:00,18.8,12.8,30.10,West,274,0.0,0.0,77,0.00,,SKC,0.02,VWS V14.01,2013-02-25 03:57:00,
2013-02-24 22:02:00,18.4,13.0,30.10,West,274,0.0,0.0,79,0.00,,SKC,0.02,VWS V14.01,2013-02-25 04:02:00,
2013-02-24 22:07:00,18.1,13.0,30.10,West,274,0.0,0.0,80,0.00,,SKC,0.02,VWS V14.01,2013-02-25 04:07:00,
2013-02-24 22:12:00,18.0,13.2,30.10,West,274,0.0,0.0,81,0.00,,SKC,0.02,VWS V14.01,2013-02-25 04:12:00,
2013-02-24 22:17:00,17.7,13.1,30.10,West,274,0.0,0.0,82,0.00,,SKC,0.02,VWS V14.01,2013-02-25 04:17:00,
2013-02-24 22:22:00,17.2,12.7,30.10,West,274,0.0,0.0,82,0.00,,SKC,0.02,VWS V14.01,2013-02-25 04:22:00,
2013-02-24 22:27:00,16.9,12.4,30.10,West,274,0.0,0.0,82,0.00,,SKC,0.02,VWS V14.01,2013-02-25 04:27:00,
2013-02-24 22:32:00,16.5,12.0,30.10,West,274,0.0,0.0,82,0.00,,SKC,0.02,VWS V14.01,2013-02-25 04:32:00,
2013-02-24 22:37:00,16.5,12.5,30.10,West,274,0.0,0.0,84,0.00,,SKC,0.02,VWS V14.01,2013-02-25 04:37:00,
2013-02-24 22:42:00,16.7,13.0,30.10,West,274,0.0,0.0,85,0.00,,SKC,0.02,VWS V14.01,2013-02-25 04:42:00,
2013-02-24 22:47:00,16.9,13.4,30.10,West,274,0.0,0.0,86,0.00,,SKC,0.02,VWS V14.01,2013-02-25 04:47:00,
2013-02-24 22:52:00,17.0,13.5,30.10,West,274,0.0,0.0,86,0.00,,SKC,0.02,VWS V14.01,2013-02-25 04:52:00,
2013-02-24 22:57:00,17.0,13.5,30.10,West,274,0.0,0.0,86,0.00,,SKC,0.02,VWS V14.01,2013-02-25 04:57:00,
2013-02-24 23:00:00,17.0,13.5,30.10,West,274,0.0,0.0,86,0.00,,SKC,0.02,VWS V14.01,2013-02-25 05:00:00,
2013-02-24 23:05:00,17.0,13.8,30.10,West,274,0.0,0.0,87,0.00,,SKC,0.02,VWS V14.01,2013-02-25 05:05:00,
2013-02-24 23:10:00,16.9,13.7,30.10,West,274,0.0,0.0,87,0.00,,SKC,0.02,VWS V14.01,2013-02-25 05:10:00,
2013-02-24 23:15:00,16.7,13.5,30.10,West,274,0.0,0.0,87,0.00,,SKC,0.02,VWS V14.01,2013-02-25 05:15:00,
2013-02-24 23:20:00,16.5,13.3,30.10,West,274,0.0,0.0,87,0.00,,SKC,0.02,VWS V14.01,2013-02-25 05:20:00,
2013-02-24 23:25:00,16.2,13.0,30.10,West,274,0.0,0.0,87,0.00,,SKC,0.02,VWS V14.01,2013-02-25 05:25:00,
2013-02-24 23:30:00,15.9,12.7,30.10,West,274,0.0,0.0,87,0.00,,SKC,0.02,VWS V14.01,2013-02-25 05:30:00,
2013-02-24 23:35:00,15.4,12.5,30.10,West,270,0.0,0.0,88,0.00,,SKC,0.02,VWS V14.01,2013-02-25 05:35:00,
2013-02-24 23:40:00,15.2,12.3,30.10,West,268,0.0,0.0,88,0.00,,SKC,0.02,VWS V14.01,2013-02-25 05:40:00,
2013-02-24 23:45:00,15.4,12.7,30.11,West,272,0.0,0.0,89,0.00,,SKC,0.02,VWS V14.01,2013-02-25 05:45:00,
2013-02-24 23:50:00,15.2,12.6,30.11,West,272,0.0,0.0,89,0.00,,SKC,0.02,VWS V14.01,2013-02-25 05:50:00,
2013-02-24 23:55:00,15.4,13.0,30.11,West,272,0.0,0.0,90,0.00,,SKC,0.02,VWS V14.01,2013-02-25 05:55:00,